Alfred, NY

12:35 PM EST on February 01, 2015 (GMT -0500)
Ardachy Farm | Change Station
CLOSE
Current Station
Personal Weather Station
Location: Alfred Station, NY
Elevation: 1877 ft
Nearby Weather Stations
Active Advisory: Winter Storm Warning

Elev 1877 ft 42.28 °N, 77.77 °W | Updated 51 seconds ago

Overcast
Overcast
21.4 °F
Feels Like 14 °F
N
6.0
Wind Variable Wind from NE
Gusts 6.0 mph

Today
High -- | Low -- °F
--% Chance of Precip.
Yesterday
High -- | Low -- °F
Precip. -- in
7:24 AM 5:25 PM
Waxing Gibbous, 95% visible
Pressure 30.04 in
Visibility 7.0 miles
Clouds Overcast 1500 ft
Windchill 14 °F
Dew Point 19 °F
Humidity 91%
Rainfall 0.00 in
Snow Depth Not available.
UV 1 out of 12
Pollen .10 out of 12
Air Quality Not available.
Flu Activity Not available.
SPECI KELZ 011724Z AUTO 00000KT 7SM -SN OVC015 M03/M07 A3004 RMK AO2 SNB03 P0000 T10331067

More Conditions Fewer Conditions

Pressure 30.04 in
Visibility 7.0 miles
Clouds Overcast 1500 ft
Windchill 14 °F
Dew Point 19 °F
Humidity 91%
Rainfall 0.00 in
Snow Depth Not available.
UV 1 out of 12
Pollen .10 out of 12
Air Quality Not available.
Flu Activity Not available.
SPECI KELZ 011724Z AUTO 00000KT 7SM -SN OVC015 M03/M07 A3004 RMK AO2 SNB03 P0000 T10331067

More Conditions Fewer Conditions

10-Day Weather Forecast

Almanac

Astronomy

Feb. 01, 2015 Rise Set
Actual Time
Civil Twilight
Nautical Twilight
Astronomical Twilight
Moon
Length of Visible Light
Length of Day
Tomorrow will be .
, % of the Moon is Illuminated

Today's Extremes

State Highs State Lows

Community

WunderPhotos

Upload Photos

1,792,405 photos uploaded!

WunderBlogs® & News

Nearby

Air Quality

  Air Quality AQ Index Pollutant
Not available.

Snow Depth

Station Depth Elevation

Earthquake Activity

City Distance Mag. Time & Date
Minimum magnitude displayed is 2.5.

Coastal Water Temperatures

Place Temperature

Nearby Weather Stations